sensor_id;sensor_type;location;lat;lon;timestamp;temperature;humidity
35027;DHT22;60696;51.426;6.934;2023-02-03T00:00:10;8.50;99.90
35027;DHT22;60696;51.426;6.934;2023-02-03T00:02:35;8.40;99.90
35027;DHT22;60696;51.426;6.934;2023-02-03T00:05:01;8.40;99.90
35027;DHT22;60696;51.426;6.934;2023-02-03T00:07:27;8.50;99.90
35027;DHT22;60696;51.426;6.934;2023-02-03T00:09:55;8.50;99.90
35027;DHT22;60696;51.426;6.934;2023-02-03T00:12:21;8.50;99.90
35027;DHT22;60696;51.426;6.934;2023-02-03T00:14:46;8.50;99.90
35027;DHT22;60696;51.426;6.934;2023-02-03T00:17:13;8.50;99.90
35027;DHT22;60696;51.426;6.934;2023-02-03T00:19:39;8.40;99.90
35027;DHT22;60696;51.426;6.934;2023-02-03T00:22:05;8.40;99.90
35027;DHT22;60696;51.426;6.934;2023-02-03T00:24:31;8.40;99.90
35027;DHT22;60696;51.426;6.934;2023-02-03T00:26:56;8.40;99.90
35027;DHT22;60696;51.426;6.934;2023-02-03T00:29:22;8.40;99.90
35027;DHT22;60696;51.426;6.934;2023-02-03T00:31:51;8.40;99.90
35027;DHT22;60696;51.426;6.934;2023-02-03T00:34:17;8.50;99.90
35027;DHT22;60696;51.426;6.934;2023-02-03T00:36:43;8.50;99.90
35027;DHT22;60696;51.426;6.934;2023-02-03T00:39:11;8.50;99.90
35027;DHT22;60696;51.426;6.934;2023-02-03T00:41:37;8.40;99.90
35027;DHT22;60696;51.426;6.934;2023-02-03T00:44:03;8.40;99.90
35027;DHT22;60696;51.426;6.934;2023-02-03T00:46:29;8.40;99.90
35027;DHT22;60696;51.426;6.934;2023-02-03T00:48:54;8.40;99.90
35027;DHT22;60696;51.426;6.934;2023-02-03T00:51:20;8.50;99.90
35027;DHT22;60696;51.426;6.934;2023-02-03T00:53:47;8.40;99.90
35027;DHT22;60696;51.426;6.934;2023-02-03T00:56:12;8.50;99.90
35027;DHT22;60696;51.426;6.934;2023-02-03T00:58:39;8.50;99.90
35027;DHT22;60696;51.426;6.934;2023-02-03T01:01:05;8.50;99.90
35027;DHT22;60696;51.426;6.934;2023-02-03T01:03:31;8.40;99.90
35027;DHT22;60696;51.426;6.934;2023-02-03T01:06:14;8.50;99.90
35027;DHT22;60696;51.426;6.934;2023-02-03T01:08:40;8.50;99.90
35027;DHT22;60696;51.426;6.934;2023-02-03T01:11:14;8.50;99.90
35027;DHT22;60696;51.426;6.934;2023-02-03T01:13:41;8.50;99.90
35027;DHT22;60696;51.426;6.934;2023-02-03T01:16:12;8.50;99.90
35027;DHT22;60696;51.426;6.934;2023-02-03T01:18:38;8.50;99.90
35027;DHT22;60696;51.426;6.934;2023-02-03T01:21:12;8.50;99.90
35027;DHT22;60696;51.426;6.934;2023-02-03T01:23:38;8.50;99.90
35027;DHT22;60696;51.426;6.934;2023-02-03T01:26:05;8.50;99.90
35027;DHT22;60696;51.426;6.934;2023-02-03T01:28:31;8.50;99.90
35027;DHT22;60696;51.426;6.934;2023-02-03T01:31:00;8.50;99.90
35027;DHT22;60696;51.426;6.934;2023-02-03T01:33:32;8.50;99.90
35027;DHT22;60696;51.426;6.934;2023-02-03T01:35:59;8.60;99.90
35027;DHT22;60696;51.426;6.934;2023-02-03T01:38:25;8.60;99.90
35027;DHT22;60696;51.426;6.934;2023-02-03T01:40:51;8.60;99.90
35027;DHT22;60696;51.426;6.934;2023-02-03T01:43:32;8.60;99.90
35027;DHT22;60696;51.426;6.934;2023-02-03T01:46:01;8.60;99.90
35027;DHT22;60696;51.426;6.934;2023-02-03T01:48:28;8.50;99.90
35027;DHT22;60696;51.426;6.934;2023-02-03T01:50:55;8.60;99.90
35027;DHT22;60696;51.426;6.934;2023-02-03T01:53:21;8.60;99.90
35027;DHT22;60696;51.426;6.934;2023-02-03T01:55:48;8.60;99.90
35027;DHT22;60696;51.426;6.934;2023-02-03T01:58:24;8.60;99.90
35027;DHT22;60696;51.426;6.934;2023-02-03T02:00:52;8.60;99.90
35027;DHT22;60696;51.426;6.934;2023-02-03T02:03:22;8.60;99.90
35027;DHT22;60696;51.426;6.934;2023-02-03T02:08:26;8.60;99.90
35027;DHT22;60696;51.426;6.934;2023-02-03T02:10:52;8.60;99.90
35027;DHT22;60696;51.426;6.934;2023-02-03T02:13:19;8.60;99.90
35027;DHT22;60696;51.426;6.934;2023-02-03T02:27:08;8.60;99.90
35027;DHT22;60696;51.426;6.934;2023-02-03T02:35:57;8.60;99.90
35027;DHT22;60696;51.426;6.934;2023-02-03T02:38:49;8.60;99.90
35027;DHT22;60696;51.426;6.934;2023-02-03T02:44:24;8.60;99.90
35027;DHT22;60696;51.426;6.934;2023-02-03T02:46:52;8.60;99.90
35027;DHT22;60696;51.426;6.934;2023-02-03T02:52:07;8.60;99.90
35027;DHT22;60696;51.426;6.934;2023-02-03T02:54:38;8.50;99.90
35027;DHT22;60696;51.426;6.934;2023-02-03T02:57:08;8.60;99.90
35027;DHT22;60696;51.426;6.934;2023-02-03T02:59:35;8.60;99.90
35027;DHT22;60696;51.426;6.934;2023-02-03T03:02:00;8.50;99.90
35027;DHT22;60696;51.426;6.934;2023-02-03T03:04:30;8.60;99.90
35027;DHT22;60696;51.426;6.934;2023-02-03T03:07:10;8.50;99.90
35027;DHT22;60696;51.426;6.934;2023-02-03T03:09:41;8.50;99.90
35027;DHT22;60696;51.426;6.934;2023-02-03T03:12:24;8.50;99.90
35027;DHT22;60696;51.426;6.934;2023-02-03T03:14:58;8.50;99.90
35027;DHT22;60696;51.426;6.934;2023-02-03T03:17:48;8.50;99.90
35027;DHT22;60696;51.426;6.934;2023-02-03T03:20:23;8.50;99.90
35027;DHT22;60696;51.426;6.934;2023-02-03T03:22:58;8.50;99.90
35027;DHT22;60696;51.426;6.934;2023-02-03T03:25:40;8.50;99.90
35027;DHT22;60696;51.426;6.934;2023-02-03T03:28:13;8.50;99.90
35027;DHT22;60696;51.426;6.934;2023-02-03T03:30:40;8.50;99.90
35027;DHT22;60696;51.426;6.934;2023-02-03T03:33:07;8.50;99.90
35027;DHT22;60696;51.426;6.934;2023-02-03T03:36:11;8.50;99.90
35027;DHT22;60696;51.426;6.934;2023-02-03T03:38:48;8.50;99.90
35027;DHT22;60696;51.426;6.934;2023-02-03T03:43:48;8.50;99.90
35027;DHT22;60696;51.426;6.934;2023-02-03T03:46:20;8.60;99.90
35027;DHT22;60696;51.426;6.934;2023-02-03T03:48:58;8.50;99.90
35027;DHT22;60696;51.426;6.934;2023-02-03T03:51:41;8.50;99.90
35027;DHT22;60696;51.426;6.934;2023-02-03T03:54:13;8.50;99.90
35027;DHT22;60696;51.426;6.934;2023-02-03T03:56:45;8.50;99.90
35027;DHT22;60696;51.426;6.934;2023-02-03T03:59:13;8.60;99.90
35027;DHT22;60696;51.426;6.934;2023-02-03T04:01:41;8.50;99.90
35027;DHT22;60696;51.426;6.934;2023-02-03T04:04:09;8.50;99.90
35027;DHT22;60696;51.426;6.934;2023-02-03T04:06:37;8.60;99.90
35027;DHT22;60696;51.426;6.934;2023-02-03T04:09:04;8.60;99.90
35027;DHT22;60696;51.426;6.934;2023-02-03T04:11:30;8.50;99.90
35027;DHT22;60696;51.426;6.934;2023-02-03T04:14:14;8.60;99.90
35027;DHT22;60696;51.426;6.934;2023-02-03T04:16:39;8.60;99.90
35027;DHT22;60696;51.426;6.934;2023-02-03T04:19:05;8.60;99.90
35027;DHT22;60696;51.426;6.934;2023-02-03T04:21:31;8.60;99.90
35027;DHT22;60696;51.426;6.934;2023-02-03T04:23:57;8.60;99.90
35027;DHT22;60696;51.426;6.934;2023-02-03T04:26:22;8.60;99.90
35027;DHT22;60696;51.426;6.934;2023-02-03T04:28:48;8.60;99.90
35027;DHT22;60696;51.426;6.934;2023-02-03T04:31:14;8.60;99.90
35027;DHT22;60696;51.426;6.934;2023-02-03T04:33:39;8.60;99.90
35027;DHT22;60696;51.426;6.934;2023-02-03T04:36:05;8.60;99.90
35027;DHT22;60696;51.426;6.934;2023-02-03T04:38:31;8.60;99.90
35027;DHT22;60696;51.426;6.934;2023-02-03T04:40:57;8.60;99.90
35027;DHT22;60696;51.426;6.934;2023-02-03T04:43:23;8.60;99.90
35027;DHT22;60696;51.426;6.934;2023-02-03T04:45:49;8.60;99.90
35027;DHT22;60696;51.426;6.934;2023-02-03T04:48:14;8.60;99.90
35027;DHT22;60696;51.426;6.934;2023-02-03T04:50:40;8.60;99.90
35027;DHT22;60696;51.426;6.934;2023-02-03T04:53:05;8.60;99.90
35027;DHT22;60696;51.426;6.934;2023-02-03T04:55:31;8.60;99.90
35027;DHT22;60696;51.426;6.934;2023-02-03T04:57:57;8.60;99.90
35027;DHT22;60696;51.426;6.934;2023-02-03T05:00:24;8.60;99.90
35027;DHT22;60696;51.426;6.934;2023-02-03T05:02:49;8.60;99.90
35027;DHT22;60696;51.426;6.934;2023-02-03T05:05:16;8.60;99.90
35027;DHT22;60696;51.426;6.934;2023-02-03T05:07:42;8.60;99.90
35027;DHT22;60696;51.426;6.934;2023-02-03T05:10:08;8.60;99.90
35027;DHT22;60696;51.426;6.934;2023-02-03T05:12:34;8.60;99.90
35027;DHT22;60696;51.426;6.934;2023-02-03T05:14:59;8.60;99.90
35027;DHT22;60696;51.426;6.934;2023-02-03T05:17:25;8.60;99.90
35027;DHT22;60696;51.426;6.934;2023-02-03T05:19:50;8.60;99.90
35027;DHT22;60696;51.426;6.934;2023-02-03T05:22:16;8.60;99.90
35027;DHT22;60696;51.426;6.934;2023-02-03T05:24:41;8.60;99.90
35027;DHT22;60696;51.426;6.934;2023-02-03T05:27:07;8.60;99.90
35027;DHT22;60696;51.426;6.934;2023-02-03T05:29:33;8.60;99.90
35027;DHT22;60696;51.426;6.934;2023-02-03T05:31:58;8.60;99.90
35027;DHT22;60696;51.426;6.934;2023-02-03T05:34:24;8.60;99.90
35027;DHT22;60696;51.426;6.934;2023-02-03T05:36:49;8.60;99.90
35027;DHT22;60696;51.426;6.934;2023-02-03T05:39:15;8.60;99.90
35027;DHT22;60696;51.426;6.934;2023-02-03T05:41:41;8.60;99.90
35027;DHT22;60696;51.426;6.934;2023-02-03T05:44:24;8.60;99.90
35027;DHT22;60696;51.426;6.934;2023-02-03T05:46:51;8.60;99.90
35027;DHT22;60696;51.426;6.934;2023-02-03T05:49:17;8.60;99.90
35027;DHT22;60696;51.426;6.934;2023-02-03T05:51:44;8.60;99.90
35027;DHT22;60696;51.426;6.934;2023-02-03T05:54:10;8.60;99.90
35027;DHT22;60696;51.426;6.934;2023-02-03T05:56:35;8.70;99.90
35027;DHT22;60696;51.426;6.934;2023-02-03T05:59:01;8.70;99.90
35027;DHT22;60696;51.426;6.934;2023-02-03T06:01:27;8.60;99.90
35027;DHT22;60696;51.426;6.934;2023-02-03T06:03:52;8.70;99.90
35027;DHT22;60696;51.426;6.934;2023-02-03T06:06:18;8.70;99.90
35027;DHT22;60696;51.426;6.934;2023-02-03T06:08:44;8.70;99.90
35027;DHT22;60696;51.426;6.934;2023-02-03T06:11:10;8.60;99.90
35027;DHT22;60696;51.426;6.934;2023-02-03T06:13:36;8.70;99.90
35027;DHT22;60696;51.426;6.934;2023-02-03T06:16:02;8.70;99.90
35027;DHT22;60696;51.426;6.934;2023-02-03T06:18:28;8.70;99.90
35027;DHT22;60696;51.426;6.934;2023-02-03T06:20:54;8.80;99.90
35027;DHT22;60696;51.426;6.934;2023-02-03T06:23:20;8.70;99.90
35027;DHT22;60696;51.426;6.934;2023-02-03T06:25:49;8.70;99.90
35027;DHT22;60696;51.426;6.934;2023-02-03T06:28:14;8.70;99.90
35027;DHT22;60696;51.426;6.934;2023-02-03T06:30:41;8.70;99.90
35027;DHT22;60696;51.426;6.934;2023-02-03T06:33:07;8.70;99.90
35027;DHT22;60696;51.426;6.934;2023-02-03T06:35:33;8.80;99.90
35027;DHT22;60696;51.426;6.934;2023-02-03T06:37:58;8.80;99.90
35027;DHT22;60696;51.426;6.934;2023-02-03T06:40:24;8.70;99.90
35027;DHT22;60696;51.426;6.934;2023-02-03T06:42:50;8.70;99.90
35027;DHT22;60696;51.426;6.934;2023-02-03T06:45:16;8.70;99.90
35027;DHT22;60696;51.426;6.934;2023-02-03T06:47:43;8.70;99.90
35027;DHT22;60696;51.426;6.934;2023-02-03T06:50:11;8.80;99.90
35027;DHT22;60696;51.426;6.934;2023-02-03T06:52:37;8.80;99.90
35027;DHT22;60696;51.426;6.934;2023-02-03T06:55:03;8.70;99.90
35027;DHT22;60696;51.426;6.934;2023-02-03T06:57:29;8.70;99.90
35027;DHT22;60696;51.426;6.934;2023-02-03T06:59:55;8.80;99.90
35027;DHT22;60696;51.426;6.934;2023-02-03T07:02:21;8.80;99.90
35027;DHT22;60696;51.426;6.934;2023-02-03T07:04:49;8.80;99.90
35027;DHT22;60696;51.426;6.934;2023-02-03T07:07:15;8.80;99.90
35027;DHT22;60696;51.426;6.934;2023-02-03T07:09:41;8.90;99.90
35027;DHT22;60696;51.426;6.934;2023-02-03T07:12:07;8.80;99.90
35027;DHT22;60696;51.426;6.934;2023-02-03T07:14:33;8.90;99.90
35027;DHT22;60696;51.426;6.934;2023-02-03T07:17:01;8.90;99.90
35027;DHT22;60696;51.426;6.934;2023-02-03T07:19:27;8.80;99.90
35027;DHT22;60696;51.426;6.934;2023-02-03T07:21:53;8.80;99.90
35027;DHT22;60696;51.426;6.934;2023-02-03T07:24:19;8.90;99.90
35027;DHT22;60696;51.426;6.934;2023-02-03T07:26:44;8.90;99.90
35027;DHT22;60696;51.426;6.934;2023-02-03T07:29:10;8.80;99.90
35027;DHT22;60696;51.426;6.934;2023-02-03T07:31:35;8.80;99.90
35027;DHT22;60696;51.426;6.934;2023-02-03T07:34:02;8.80;99.90
35027;DHT22;60696;51.426;6.934;2023-02-03T07:36:28;8.80;99.90
35027;DHT22;60696;51.426;6.934;2023-02-03T07:38:54;8.80;99.90
35027;DHT22;60696;51.426;6.934;2023-02-03T07:41:20;8.80;99.90
35027;DHT22;60696;51.426;6.934;2023-02-03T07:43:45;8.80;99.90
35027;DHT22;60696;51.426;6.934;2023-02-03T07:46:12;8.80;99.90
35027;DHT22;60696;51.426;6.934;2023-02-03T07:48:37;8.80;99.90
35027;DHT22;60696;51.426;6.934;2023-02-03T07:51:03;8.90;99.90
35027;DHT22;60696;51.426;6.934;2023-02-03T07:53:30;8.90;99.90
35027;DHT22;60696;51.426;6.934;2023-02-03T07:55:59;8.90;99.90
35027;DHT22;60696;51.426;6.934;2023-02-03T07:58:25;8.90;99.90
35027;DHT22;60696;51.426;6.934;2023-02-03T08:00:51;8.80;99.90
35027;DHT22;60696;51.426;6.934;2023-02-03T08:03:16;8.90;99.90
35027;DHT22;60696;51.426;6.934;2023-02-03T08:05:42;8.90;99.90
35027;DHT22;60696;51.426;6.934;2023-02-03T08:08:08;8.90;99.90
35027;DHT22;60696;51.426;6.934;2023-02-03T08:10:33;8.90;99.90
35027;DHT22;60696;51.426;6.934;2023-02-03T08:12:59;8.90;99.90
35027;DHT22;60696;51.426;6.934;2023-02-03T08:15:25;8.90;99.90
35027;DHT22;60696;51.426;6.934;2023-02-03T08:17:50;8.90;99.90
35027;DHT22;60696;51.426;6.934;2023-02-03T08:20:17;8.90;99.90
35027;DHT22;60696;51.426;6.934;2023-02-03T08:22:43;8.90;99.90
35027;DHT22;60696;51.426;6.934;2023-02-03T08:25:09;8.90;99.90
35027;DHT22;60696;51.426;6.934;2023-02-03T08:27:35;8.90;99.90
35027;DHT22;60696;51.426;6.934;2023-02-03T08:30:00;8.90;99.90
35027;DHT22;60696;51.426;6.934;2023-02-03T08:32:26;8.90;99.90
35027;DHT22;60696;51.426;6.934;2023-02-03T08:34:52;8.90;99.90
35027;DHT22;60696;51.426;6.934;2023-02-03T08:37:20;8.90;99.90
35027;DHT22;60696;51.426;6.934;2023-02-03T08:39:47;8.90;99.90
35027;DHT22;60696;51.426;6.934;2023-02-03T08:42:13;8.90;99.90
35027;DHT22;60696;51.426;6.934;2023-02-03T08:44:38;8.90;99.90
35027;DHT22;60696;51.426;6.934;2023-02-03T08:47:05;8.90;99.90
35027;DHT22;60696;51.426;6.934;2023-02-03T08:49:31;8.90;99.90
35027;DHT22;60696;51.426;6.934;2023-02-03T08:51:57;8.90;99.90
35027;DHT22;60696;51.426;6.934;2023-02-03T08:54:24;8.90;99.90
35027;DHT22;60696;51.426;6.934;2023-02-03T08:56:50;8.90;99.90
35027;DHT22;60696;51.426;6.934;2023-02-03T08:59:16;8.90;99.90
35027;DHT22;60696;51.426;6.934;2023-02-03T09:01:43;9.00;99.90
35027;DHT22;60696;51.426;6.934;2023-02-03T09:04:13;9.00;99.90
35027;DHT22;60696;51.426;6.934;2023-02-03T09:06:39;9.00;99.90
35027;DHT22;60696;51.426;6.934;2023-02-03T09:09:05;8.90;99.90
35027;DHT22;60696;51.426;6.934;2023-02-03T09:11:30;9.00;99.90
35027;DHT22;60696;51.426;6.934;2023-02-03T09:13:56;9.00;99.90
35027;DHT22;60696;51.426;6.934;2023-02-03T09:16:23;8.90;99.90
35027;DHT22;60696;51.426;6.934;2023-02-03T09:18:49;9.00;99.90
35027;DHT22;60696;51.426;6.934;2023-02-03T09:21:16;9.00;99.90
35027;DHT22;60696;51.426;6.934;2023-02-03T09:23:43;8.90;99.90
35027;DHT22;60696;51.426;6.934;2023-02-03T09:26:11;8.90;99.90
35027;DHT22;60696;51.426;6.934;2023-02-03T09:28:38;9.00;99.90
35027;DHT22;60696;51.426;6.934;2023-02-03T09:31:12;9.00;99.90
35027;DHT22;60696;51.426;6.934;2023-02-03T09:33:39;9.00;99.90
35027;DHT22;60696;51.426;6.934;2023-02-03T09:36:06;9.00;99.90
35027;DHT22;60696;51.426;6.934;2023-02-03T09:38:33;9.00;99.90
35027;DHT22;60696;51.426;6.934;2023-02-03T09:46:21;9.00;99.90
35027;DHT22;60696;51.426;6.934;2023-02-03T09:48:57;9.00;99.90
35027;DHT22;60696;51.426;6.934;2023-02-03T09:51:42;9.00;99.90
35027;DHT22;60696;51.426;6.934;2023-02-03T09:57:25;9.10;99.90
35027;DHT22;60696;51.426;6.934;2023-02-03T09:59:53;9.00;99.90
35027;DHT22;60696;51.426;6.934;2023-02-03T10:16:42;9.10;99.90
35027;DHT22;60696;51.426;6.934;2023-02-03T10:19:25;9.20;99.90
35027;DHT22;60696;51.426;6.934;2023-02-03T10:21:54;9.20;99.90
35027;DHT22;60696;51.426;6.934;2023-02-03T10:26:54;9.20;99.90
35027;DHT22;60696;51.426;6.934;2023-02-03T10:29:28;9.20;99.90
35027;DHT22;60696;51.426;6.934;2023-02-03T10:31:57;9.30;99.90
35027;DHT22;60696;51.426;6.934;2023-02-03T10:34:23;9.30;99.90
35027;DHT22;60696;51.426;6.934;2023-02-03T10:37:02;9.30;99.90
35027;DHT22;60696;51.426;6.934;2023-02-03T10:39:46;9.30;99.90
35027;DHT22;60696;51.426;6.934;2023-02-03T10:42:14;9.30;99.90
35027;DHT22;60696;51.426;6.934;2023-02-03T10:44:47;9.30;99.90
35027;DHT22;60696;51.426;6.934;2023-02-03T10:47:24;9.30;99.90
35027;DHT22;60696;51.426;6.934;2023-02-03T10:49:53;9.30;99.90
35027;DHT22;60696;51.426;6.934;2023-02-03T10:52:34;9.40;99.90
35027;DHT22;60696;51.426;6.934;2023-02-03T10:57:54;9.40;99.90
35027;DHT22;60696;51.426;6.934;2023-02-03T11:00:30;9.40;99.90
35027;DHT22;60696;51.426;6.934;2023-02-03T11:05:37;9.50;99.90
35027;DHT22;60696;51.426;6.934;2023-02-03T11:08:03;9.50;99.90
35027;DHT22;60696;51.426;6.934;2023-02-03T11:10:37;9.50;99.90
35027;DHT22;60696;51.426;6.934;2023-02-03T11:13:14;9.60;99.90
35027;DHT22;60696;51.426;6.934;2023-02-03T11:21:27;9.60;99.90
35027;DHT22;60696;51.426;6.934;2023-02-03T11:26:47;9.60;99.90
35027;DHT22;60696;51.426;6.934;2023-02-03T11:29:25;9.60;99.90
35027;DHT22;60696;51.426;6.934;2023-02-03T11:31:54;9.60;99.90
35027;DHT22;60696;51.426;6.934;2023-02-03T11:34:38;9.60;99.90
35027;DHT22;60696;51.426;6.934;2023-02-03T11:37:27;9.60;99.90
35027;DHT22;60696;51.426;6.934;2023-02-03T11:42:38;9.70;99.90
35027;DHT22;60696;51.426;6.934;2023-02-03T11:48:03;9.70;99.90
35027;DHT22;60696;51.426;6.934;2023-02-03T11:51:09;9.60;99.90
35027;DHT22;60696;51.426;6.934;2023-02-03T11:56:32;9.70;99.90
35027;DHT22;60696;51.426;6.934;2023-02-03T11:59:23;9.80;99.90
35027;DHT22;60696;51.426;6.934;2023-02-03T12:07:55;9.80;99.90
35027;DHT22;60696;51.426;6.934;2023-02-03T12:10:37;9.80;99.90
35027;DHT22;60696;51.426;6.934;2023-02-03T12:13:30;9.70;99.90
35027;DHT22;60696;51.426;6.934;2023-02-03T12:16:20;9.70;99.90
35027;DHT22;60696;51.426;6.934;2023-02-03T12:19:15;9.70;99.90
35027;DHT22;60696;51.426;6.934;2023-02-03T12:29:36;9.90;99.90
35027;DHT22;60696;51.426;6.934;2023-02-03T12:32:19;9.90;99.90
35027;DHT22;60696;51.426;6.934;2023-02-03T12:42:54;10.00;99.90
35027;DHT22;60696;51.426;6.934;2023-02-03T12:45:29;10.00;99.90
35027;DHT22;60696;51.426;6.934;2023-02-03T12:47:57;10.00;99.90
35027;DHT22;60696;51.426;6.934;2023-02-03T12:50:33;9.90;99.90
35027;DHT22;60696;51.426;6.934;2023-02-03T12:53:31;9.90;99.90
35027;DHT22;60696;51.426;6.934;2023-02-03T12:56:05;9.90;99.90
35027;DHT22;60696;51.426;6.934;2023-02-03T12:58:51;9.80;99.90
35027;DHT22;60696;51.426;6.934;2023-02-03T13:01:45;9.90;99.90
35027;DHT22;60696;51.426;6.934;2023-02-03T13:07:16;9.90;99.90
35027;DHT22;60696;51.426;6.934;2023-02-03T13:10:14;9.90;99.90
35027;DHT22;60696;51.426;6.934;2023-02-03T13:12:54;9.90;99.90
35027;DHT22;60696;51.426;6.934;2023-02-03T13:15:30;9.90;99.90
35027;DHT22;60696;51.426;6.934;2023-02-03T13:20:51;9.90;99.90
35027;DHT22;60696;51.426;6.934;2023-02-03T13:23:18;9.90;99.90
35027;DHT22;60696;51.426;6.934;2023-02-03T13:25:57;9.90;99.90
35027;DHT22;60696;51.426;6.934;2023-02-03T13:31:37;10.00;99.90
35027;DHT22;60696;51.426;6.934;2023-02-03T13:34:32;10.00;99.90
35027;DHT22;60696;51.426;6.934;2023-02-03T13:37:17;10.00;99.90
35027;DHT22;60696;51.426;6.934;2023-02-03T13:40:08;10.10;99.90
35027;DHT22;60696;51.426;6.934;2023-02-03T13:42:43;10.10;99.90
35027;DHT22;60696;51.426;6.934;2023-02-03T13:45:40;10.10;99.90
35027;DHT22;60696;51.426;6.934;2023-02-03T13:50:41;10.00;99.90
35027;DHT22;60696;51.426;6.934;2023-02-03T13:55:44;10.00;99.90
35027;DHT22;60696;51.426;6.934;2023-02-03T13:58:30;10.10;99.90
35027;DHT22;60696;51.426;6.934;2023-02-03T14:01:03;10.10;99.90
35027;DHT22;60696;51.426;6.934;2023-02-03T14:05:58;10.10;99.90
35027;DHT22;60696;51.426;6.934;2023-02-03T14:19:08;10.10;99.90
35027;DHT22;60696;51.426;6.934;2023-02-03T14:24:56;9.80;99.90
35027;DHT22;60696;51.426;6.934;2023-02-03T14:27:24;9.40;99.90
35027;DHT22;60696;51.426;6.934;2023-02-03T14:30:07;9.20;99.90
35027;DHT22;60696;51.426;6.934;2023-02-03T14:32:49;9.00;99.90
35027;DHT22;60696;51.426;6.934;2023-02-03T14:38:00;8.80;99.90
35027;DHT22;60696;51.426;6.934;2023-02-03T14:40:50;8.80;99.90
35027;DHT22;60696;51.426;6.934;2023-02-03T14:46:05;8.70;99.90
35027;DHT22;60696;51.426;6.934;2023-02-03T15:02:31;8.70;99.90
35027;DHT22;60696;51.426;6.934;2023-02-03T15:07:46;8.80;99.90
35027;DHT22;60696;51.426;6.934;2023-02-03T15:10:25;8.80;99.90
35027;DHT22;60696;51.426;6.934;2023-02-03T15:12:55;8.80;99.90
35027;DHT22;60696;51.426;6.934;2023-02-03T15:15:27;8.80;99.90
35027;DHT22;60696;51.426;6.934;2023-02-03T15:17:55;8.80;99.90
35027;DHT22;60696;51.426;6.934;2023-02-03T15:22:58;8.90;99.90
35027;DHT22;60696;51.426;6.934;2023-02-03T15:25:24;8.90;99.90
35027;DHT22;60696;51.426;6.934;2023-02-03T15:27:51;8.90;99.90
35027;DHT22;60696;51.426;6.934;2023-02-03T15:30:27;9.00;99.90
35027;DHT22;60696;51.426;6.934;2023-02-03T15:33:13;9.00;99.90
35027;DHT22;60696;51.426;6.934;2023-02-03T15:35:41;9.00;99.90
35027;DHT22;60696;51.426;6.934;2023-02-03T15:38:14;9.00;99.90
35027;DHT22;60696;51.426;6.934;2023-02-03T15:40:43;9.00;99.90
35027;DHT22;60696;51.426;6.934;2023-02-03T15:43:17;9.10;99.90
35027;DHT22;60696;51.426;6.934;2023-02-03T15:45:54;9.00;99.90
35027;DHT22;60696;51.426;6.934;2023-02-03T15:51:02;9.00;99.90
35027;DHT22;60696;51.426;6.934;2023-02-03T15:56:35;9.10;99.90
35027;DHT22;60696;51.426;6.934;2023-02-03T15:59:04;9.10;99.90
35027;DHT22;60696;51.426;6.934;2023-02-03T16:01:30;9.10;99.90
35027;DHT22;60696;51.426;6.934;2023-02-03T16:03:57;9.10;99.90
35027;DHT22;60696;51.426;6.934;2023-02-03T16:06:30;9.10;99.90
35027;DHT22;60696;51.426;6.934;2023-02-03T16:09:00;9.10;99.90
35027;DHT22;60696;51.426;6.934;2023-02-03T16:11:33;9.00;99.90
35027;DHT22;60696;51.426;6.934;2023-02-03T16:14:01;9.10;99.90
35027;DHT22;60696;51.426;6.934;2023-02-03T16:18:58;9.10;99.90
35027;DHT22;60696;51.426;6.934;2023-02-03T16:21:34;9.10;99.90
35027;DHT22;60696;51.426;6.934;2023-02-03T16:24:01;9.20;99.90
35027;DHT22;60696;51.426;6.934;2023-02-03T16:26:29;9.10;99.90
35027;DHT22;60696;51.426;6.934;2023-02-03T16:31:53;9.20;99.90
35027;DHT22;60696;51.426;6.934;2023-02-03T16:34:37;9.20;99.90
35027;DHT22;60696;51.426;6.934;2023-02-03T16:37:27;9.10;99.90
35027;DHT22;60696;51.426;6.934;2023-02-03T16:40:14;9.10;99.90
35027;DHT22;60696;51.426;6.934;2023-02-03T16:43:01;9.10;99.90
35027;DHT22;60696;51.426;6.934;2023-02-03T16:45:58;9.10;99.90
35027;DHT22;60696;51.426;6.934;2023-02-03T16:48:42;9.00;99.90
35027;DHT22;60696;51.426;6.934;2023-02-03T16:51:40;9.00;99.90
35027;DHT22;60696;51.426;6.934;2023-02-03T16:54:11;9.00;99.90
35027;DHT22;60696;51.426;6.934;2023-02-03T16:56:42;9.00;99.90
35027;DHT22;60696;51.426;6.934;2023-02-03T16:59:08;9.00;99.90
35027;DHT22;60696;51.426;6.934;2023-02-03T17:01:34;9.00;99.90
35027;DHT22;60696;51.426;6.934;2023-02-03T17:04:00;9.00;99.90
35027;DHT22;60696;51.426;6.934;2023-02-03T17:06:27;8.90;99.90
35027;DHT22;60696;51.426;6.934;2023-02-03T17:08:52;8.90;99.90
35027;DHT22;60696;51.426;6.934;2023-02-03T17:11:20;9.00;99.90
35027;DHT22;60696;51.426;6.934;2023-02-03T17:13:47;8.90;99.90
35027;DHT22;60696;51.426;6.934;2023-02-03T17:16:18;8.90;99.90
35027;DHT22;60696;51.426;6.934;2023-02-03T17:18:45;8.80;99.90
35027;DHT22;60696;51.426;6.934;2023-02-03T17:21:19;8.80;99.90
35027;DHT22;60696;51.426;6.934;2023-02-03T17:23:45;8.80;99.90
35027;DHT22;60696;51.426;6.934;2023-02-03T17:26:10;8.80;99.90
35027;DHT22;60696;51.426;6.934;2023-02-03T17:28:39;8.90;99.90
35027;DHT22;60696;51.426;6.934;2023-02-03T17:31:06;8.90;99.90
35027;DHT22;60696;51.426;6.934;2023-02-03T17:33:33;8.80;99.90
35027;DHT22;60696;51.426;6.934;2023-02-03T17:36:09;8.90;99.90
35027;DHT22;60696;51.426;6.934;2023-02-03T17:38:37;8.90;99.90
35027;DHT22;60696;51.426;6.934;2023-02-03T17:41:12;8.90;99.90
35027;DHT22;60696;51.426;6.934;2023-02-03T17:43:38;8.80;99.90
35027;DHT22;60696;51.426;6.934;2023-02-03T17:46:04;8.80;99.90
35027;DHT22;60696;51.426;6.934;2023-02-03T17:48:29;8.80;99.90
35027;DHT22;60696;51.426;6.934;2023-02-03T17:51:04;8.80;99.90
35027;DHT22;60696;51.426;6.934;2023-02-03T17:53:30;8.80;99.90
35027;DHT22;60696;51.426;6.934;2023-02-03T17:55:56;8.70;99.90
35027;DHT22;60696;51.426;6.934;2023-02-03T17:58:22;8.70;99.90
35027;DHT22;60696;51.426;6.934;2023-02-03T18:00:47;8.70;99.90
35027;DHT22;60696;51.426;6.934;2023-02-03T18:03:13;8.70;99.90
35027;DHT22;60696;51.426;6.934;2023-02-03T18:05:38;8.70;99.90
35027;DHT22;60696;51.426;6.934;2023-02-03T18:08:04;8.60;99.90
35027;DHT22;60696;51.426;6.934;2023-02-03T18:10:31;8.60;99.90
35027;DHT22;60696;51.426;6.934;2023-02-03T18:12:58;8.60;99.90
35027;DHT22;60696;51.426;6.934;2023-02-03T18:15:23;8.50;99.90
35027;DHT22;60696;51.426;6.934;2023-02-03T18:17:49;8.50;99.90
35027;DHT22;60696;51.426;6.934;2023-02-03T18:20:14;8.40;99.90
35027;DHT22;60696;51.426;6.934;2023-02-03T18:22:42;8.40;99.90
35027;DHT22;60696;51.426;6.934;2023-02-03T18:25:08;8.40;99.90
35027;DHT22;60696;51.426;6.934;2023-02-03T18:27:34;8.30;99.90
35027;DHT22;60696;51.426;6.934;2023-02-03T18:29:59;8.30;99.90
35027;DHT22;60696;51.426;6.934;2023-02-03T18:32:25;8.20;99.90
35027;DHT22;60696;51.426;6.934;2023-02-03T18:34:51;8.20;99.90
35027;DHT22;60696;51.426;6.934;2023-02-03T18:37:16;8.20;99.90
35027;DHT22;60696;51.426;6.934;2023-02-03T18:39:42;8.10;99.90
35027;DHT22;60696;51.426;6.934;2023-02-03T18:42:07;8.00;99.90
35027;DHT22;60696;51.426;6.934;2023-02-03T18:44:33;7.90;99.90
35027;DHT22;60696;51.426;6.934;2023-02-03T18:46:59;7.90;99.90